Newburg, MO

1:22 PM CDT on August 30, 2014 (GMT -0500)
Rolla National | Change Station
CLOSE
Current Station
Airport
Location: Rolla,
Elevation: 1145 ft
Nearby Weather Stations

Elev 1145 ft 38.13 °N, 91.77 °W | Updated 11 minutes ago

Overcast
Overcast
82 °F
Feels Like 86 °F
N
8
Wind Variable Wind from South

Today
High -- | Low -- °F
--% Chance of Precip.
Yesterday
High -- | Low -- °F
Precip. -- in
6:35 AM 7:39 PM
Waxing Crescent, 23% visible
Pressure 29.95 in
Visibility 10.0 miles
Clouds Overcast 2600 ft
Heat Index 86 °F
Dew Point 69 °F
Humidity 65%
Rainfall 0.00 in
Snow Depth Not available.
UV 3 out of 12
Pollen 8.30 out of 12
Air Quality Not available.
Flu Activity Not available.
SPECI KVIH 301811Z AUTO 17007KT 10SM VCTS OVC026 28/21 A2995 RMK AO2 LTG DSNT NW-NE T02780206

More Conditions Fewer Conditions

Pressure 29.95 in
Visibility 10.0 miles
Clouds Overcast 2600 ft
Heat Index 86 °F
Dew Point 69 °F
Humidity 65%
Rainfall 0.00 in
Snow Depth Not available.
UV 3 out of 12
Pollen 8.30 out of 12
Air Quality Not available.
Flu Activity Not available.
SPECI KVIH 301811Z AUTO 17007KT 10SM VCTS OVC026 28/21 A2995 RMK AO2 LTG DSNT NW-NE T02780206

More Conditions Fewer Conditions

10-Day Weather Forecast

Almanac

Astronomy

Aug. 30, 2014 Rise Set
Actual Time 6:35 AM CDT 7:39 PM CDT
Civil Twilight 6:08 AM CDT 8:06 PM CDT
Nautical Twilight 5:36 AM CDT 8:38 PM CDT
Astronomical Twilight 5:03 AM CDT 9:12 PM CDT
Moon 11:18 AM CDT 10:20 PM CDT
Length of Visible Light 13h 58m
Length of Day
13h 04m
Tomorrow will be 2m 20s shorter.
Waxing Crescent, 23% of the Moon is Illuminated
Today
Waxing Crescent
Sep 2
First Quarter
Sep 8
Full
Sep 15
Last Quarter
Sep 24
New

Today's Extremes

State Highs State Lows

Community

WunderPhotos

Upload Photos

1,748,583 photos uploaded!

WunderBlogs® & News

Nearby

Snow Depth

Station Depth Elevation
No new snow has been reported.

Earthquake Activity

City Distance Mag. Time & Date
No recent earthquake activity has been reported nearby.
Minimum magnitude displayed is 2.5.

Coastal Water Temperatures

Place Temperature
No Stations Reporting

Nearby Weather Stations